Portada
METAR-TAF:

METAR-TAF

Aeropuertos :

Grosseto, Italia

latitud: 42-45N, longitud: 011-04E, altitud: 5 m

Observación

El informe se hizo hace 23 minutos, a las 10:55 UTC
Viento 3 kt del oeste-noroeste
Temperatura 13°C
Humedad 44%
Presión 1024 hPa
Visibilidad 10 km o más
sin nubes por debajo de 1500 m y sin presencia de cumulonimbus.

METAR: LIRS 201055Z 29003KT CAVOK 13/01 Q1024

Hora: 12:18 (11:18 UTC)

Pronóstico

El informe se hizo hace 3 horas y 18 minutos, a las 08:00 UTC
Pronóstico válido del 20 a las 09 UTC al 20 a las 18 UTC
Viento 8 kt del norte-noreste
Visibilidad 10 km o más
sin nubes por debajo de 1500 m y sin presencia de cumulonimbus.

TAF: LIRS 200800Z 2009/2018 03008KT CAVOK

Observaciones y pronósticos meteorológicos de más de 4000 aeropuertos (mensajes METAR y TAF).

Los puntos amarillos y rojos representan las estaciones disponibles.

Ponga el ratón en el punto deseado para ver el nombre de la estación.

Haga clic para ver las observaciones y los pronósticos meteorológicos.

Para cambiar el mapa : haga clic en los botones verdes con una cruz de color negro para hacer un zoom, en el botón verde con un guión para alejar o en las flechas verdes para mapas adyacentes.


METAR-TAF: